createdAt,value
2017-05-29T09:22:29.252Z,6.52
2017-05-29T09:24:58.812Z,5.84
2017-05-29T09:27:28.340Z,5.90
2017-05-29T09:29:57.066Z,6.54
2017-05-29T09:32:25.538Z,6.24
2017-05-29T09:34:53.974Z,5.96
2017-05-29T09:37:23.603Z,5.64
2017-05-29T09:39:52.131Z,5.88
2017-05-29T09:42:21.457Z,6.08
2017-05-29T09:44:50.073Z,6.34
2017-05-29T09:47:18.446Z,5.40
2017-05-29T09:52:21.965Z,6.02
2017-05-29T09:54:50.575Z,5.92
2017-05-29T09:57:19.976Z,5.78
2017-05-29T09:59:49.838Z,5.10
2017-05-29T10:02:18.217Z,6.42
2017-05-29T10:04:46.525Z,8.06
2017-05-29T10:07:15.321Z,5.70
2017-05-29T10:09:43.643Z,6.22
2017-05-29T10:12:11.934Z,6.78
2017-05-29T10:14:40.550Z,6.88
2017-05-29T10:17:09.654Z,6.78
2017-05-29T10:19:42.319Z,6.56
2017-05-29T10:22:10.814Z,6.86
2017-05-29T10:24:39.320Z,7.62
2017-05-29T10:27:09.749Z,7.70
2017-05-29T10:29:38.812Z,4.72
2017-05-29T10:32:07.829Z,6.22
2017-05-29T10:34:36.992Z,7.08
2017-05-29T10:37:07.419Z,5.92
2017-05-29T10:39:37.029Z,7.42
2017-05-29T10:42:06.083Z,6.10
2017-05-29T10:44:35.504Z,7.70
2017-05-29T10:47:03.986Z,6.38
2017-05-29T10:49:32.946Z,6.40
2017-05-29T10:52:01.442Z,6.42
2017-05-29T10:54:30.023Z,5.96
2017-05-29T10:56:59.708Z,6.38
2017-05-29T10:59:28.178Z,6.46
2017-05-29T11:01:56.707Z,7.06
2017-05-29T11:04:25.430Z,9.86
2017-05-29T11:06:53.802Z,9.08
2017-05-29T11:09:22.391Z,6.16
2017-05-29T11:11:51.089Z,5.90
2017-05-29T11:14:19.544Z,6.38
2017-05-29T11:16:48.672Z,7.22
2017-05-29T11:19:17.570Z,6.92
2017-05-29T11:21:48.209Z,6.10
2017-05-29T11:24:16.715Z,6.14
2017-05-29T11:26:45.609Z,6.34
2017-05-29T11:29:15.702Z,7.82
2017-05-29T11:31:46.404Z,7.34
2017-05-29T11:34:14.843Z,6.50
2017-05-29T11:36:43.221Z,6.50
2017-05-29T11:39:11.839Z,6.24
2017-05-29T11:41:40.120Z,6.72
2017-05-29T11:44:08.447Z,6.02
2017-05-29T11:46:37.697Z,6.12
2017-05-29T11:49:06.074Z,6.12
2017-05-29T11:51:34.396Z,13.68
2017-05-29T11:54:03.355Z,6.22
2017-05-29T11:56:31.662Z,5.30
2017-05-29T11:58:59.981Z,5.72
2017-05-29T12:01:29.349Z,5.30
2017-05-29T12:03:57.783Z,6.84
2017-05-29T12:06:26.318Z,6.32
2017-05-29T12:08:55.030Z,4.96
2017-05-29T12:11:23.344Z,7.66
2017-05-29T12:13:51.701Z,9.02
2017-05-29T12:16:20.268Z,5.22
2017-05-29T12:18:48.571Z,4.90
2017-05-29T12:21:16.877Z,4.84
2017-05-29T12:23:45.409Z,5.06
2017-05-29T12:26:13.716Z,4.54
2017-05-29T12:28:42.020Z,4.98
2017-05-29T12:31:10.680Z,4.64
2017-05-29T12:33:38.978Z,5.28
2017-05-29T12:36:07.287Z,5.18
2017-05-29T12:38:36.050Z,5.02
2017-05-29T12:41:04.580Z,7.84
2017-05-29T12:43:32.881Z,5.06
2017-05-29T12:46:01.200Z,5.22
2017-05-29T12:48:29.735Z,5.12
2017-05-29T12:50:58.056Z,5.24
2017-05-29T12:53:26.360Z,4.96
2017-05-29T12:55:55.188Z,4.78
2017-05-29T12:58:23.535Z,4.52
2017-05-29T13:00:51.857Z,5.40
2017-05-29T13:03:20.474Z,7.38
2017-05-29T13:05:48.036Z,5.46
2017-05-29T13:08:16.337Z,4.88
2017-05-29T13:10:44.925Z,4.80
2017-05-29T13:13:13.266Z,4.96
2017-05-29T13:15:41.610Z,5.08
2017-05-29T13:18:10.157Z,5.30
2017-05-29T13:20:38.481Z,6.82
2017-05-29T13:23:06.789Z,4.80
2017-05-29T13:25:35.323Z,4.80
2017-05-29T13:28:04.226Z,3.94
2017-05-29T13:30:32.526Z,6.00
2017-05-29T13:33:01.138Z,5.06
2017-05-29T13:35:29.445Z,4.98
2017-05-29T13:37:57.756Z,4.54
2017-05-29T13:40:26.301Z,4.44
2017-05-29T13:42:54.611Z,9.32
2017-05-29T13:45:22.919Z,4.50
2017-05-29T13:47:51.452Z,4.12
2017-05-29T13:50:19.766Z,4.12
2017-05-29T13:52:48.067Z,5.76
2017-05-29T13:55:16.608Z,5.42
2017-05-29T13:57:44.912Z,4.84
2017-05-29T14:00:13.533Z,4.74
2017-05-29T14:02:48.425Z,4.14
2017-05-29T14:05:16.737Z,4.76
2017-05-29T14:07:45.281Z,4.58
2017-05-29T14:10:13.595Z,3.88
2017-05-29T14:12:41.908Z,4.14
2017-05-29T14:15:10.556Z,4.28
2017-05-29T14:17:38.851Z,4.28
2017-05-29T14:20:07.148Z,4.12
2017-05-29T14:22:35.032Z,4.26
2017-05-29T14:25:03.375Z,4.30
2017-05-29T14:27:31.702Z,4.54
2017-05-29T14:30:00.257Z,5.50
2017-05-29T14:32:28.559Z,4.62
2017-05-29T14:34:56.849Z,6.64
2017-05-29T14:37:25.371Z,4.80
2017-05-29T14:39:53.679Z,4.10
2017-05-29T14:42:22.003Z,4.76
2017-05-29T14:44:50.793Z,4.82
2017-05-29T14:47:19.100Z,4.66
2017-05-29T14:49:47.421Z,5.02
2017-05-29T14:52:15.966Z,4.46
2017-05-29T14:54:44.298Z,3.80
2017-05-29T14:57:12.602Z,4.24
2017-05-29T14:59:41.130Z,4.52
2017-05-29T15:02:09.439Z,4.38
2017-05-29T15:04:37.758Z,4.08
2017-05-29T15:07:06.301Z,5.42
2017-05-29T15:09:34.597Z,4.30
2017-05-29T15:12:02.898Z,4.18
2017-05-29T15:14:31.452Z,4.40
2017-05-29T15:16:59.786Z,5.12
2017-05-29T15:19:28.090Z,4.46
2017-05-29T15:21:56.625Z,4.54
2017-05-29T15:24:24.942Z,4.40
2017-05-29T15:26:53.243Z,6.28
2017-05-29T15:29:21.995Z,4.62
2017-05-29T15:31:50.406Z,4.90
2017-05-29T15:34:18.723Z,4.20
2017-05-29T15:36:47.359Z,4.38
2017-05-29T15:39:15.655Z,4.84
2017-05-29T15:41:43.958Z,4.72
2017-05-29T15:44:12.692Z,4.08
2017-05-29T15:46:41.012Z,4.30
2017-05-29T15:49:09.365Z,4.72
2017-05-29T15:51:38.138Z,4.54
2017-05-29T15:54:06.436Z,4.44
2017-05-29T15:56:35.006Z,4.04
2017-05-29T15:59:03.539Z,4.12
2017-05-29T16:01:31.850Z,4.00
2017-05-29T16:04:00.147Z,3.90
2017-05-29T16:06:28.788Z,4.96
2017-05-29T16:08:57.103Z,5.22
2017-05-29T16:11:25.416Z,4.40
2017-05-29T16:13:54.031Z,5.42
2017-05-29T16:16:22.351Z,4.58
2017-05-29T16:18:50.663Z,4.46
2017-05-29T16:21:19.281Z,4.94
2017-05-29T16:23:47.626Z,5.10
2017-05-29T16:26:15.921Z,4.64
2017-05-29T16:28:44.436Z,6.40
2017-05-29T16:31:12.749Z,4.90
2017-05-29T16:33:41.057Z,5.22
2017-05-29T16:36:09.589Z,4.74
2017-05-29T16:38:37.898Z,5.48
2017-05-29T16:41:06.195Z,10.94
2017-05-29T16:43:34.742Z,4.62
2017-05-29T16:46:03.048Z,6.10
2017-05-29T16:48:31.361Z,5.36
2017-05-29T16:51:00.164Z,5.00
2017-05-29T16:53:28.492Z,4.46
2017-05-29T16:55:56.790Z,5.10
2017-05-29T16:58:25.330Z,4.88
2017-05-29T17:00:53.876Z,5.62
2017-05-29T17:03:22.190Z,5.16
2017-05-29T17:05:50.715Z,6.06
2017-05-29T17:08:19.007Z,4.98
2017-05-29T17:10:47.327Z,7.52
2017-05-29T17:13:16.658Z,5.14
2017-05-29T17:15:44.958Z,5.30
2017-05-29T17:18:13.278Z,5.38
2017-05-29T17:20:41.805Z,5.60
2017-05-29T17:23:09.342Z,5.44
2017-05-29T17:25:37.633Z,16.36
2017-05-29T17:28:06.162Z,7.34
2017-05-29T17:30:34.491Z,8.02
2017-05-29T17:33:02.802Z,7.84
2017-05-29T17:35:31.352Z,5.84
2017-05-29T17:38:01.363Z,6.34
2017-05-29T17:40:29.709Z,7.00
2017-05-29T17:42:58.185Z,5.42
2017-05-29T17:45:26.723Z,5.50
2017-05-29T17:47:55.061Z,6.78
2017-05-29T17:50:23.389Z,8.40
2017-05-29T17:52:52.062Z,6.12
2017-05-29T17:55:20.388Z,6.34
2017-05-29T17:57:48.704Z,5.56
2017-05-29T18:00:17.330Z,6.58
2017-05-29T18:02:44.864Z,6.16
2017-05-29T18:05:13.174Z,7.86
2017-05-29T18:07:41.721Z,5.44
2017-05-29T18:10:10.035Z,6.58
2017-05-29T18:12:38.368Z,5.94
2017-05-29T18:15:06.962Z,6.94
2017-05-29T18:17:35.281Z,7.10
2017-05-29T18:20:03.594Z,6.14
2017-05-29T18:22:33.022Z,6.08
2017-05-29T18:25:01.340Z,6.66
2017-05-29T18:27:29.660Z,7.56
2017-05-29T18:29:58.188Z,7.64
2017-05-29T18:32:26.511Z,6.58
2017-05-29T18:34:54.887Z,6.48
2017-05-29T18:37:23.701Z,6.84
2017-05-29T18:39:52.020Z,6.16
2017-05-29T18:42:20.345Z,6.08
2017-05-29T18:44:48.305Z,8.72
2017-05-29T18:47:16.605Z,6.56
2017-05-29T18:49:44.949Z,7.40
2017-05-29T18:52:12.791Z,7.00
2017-05-29T18:54:41.110Z,7.20
2017-05-29T18:57:08.638Z,8.60
2017-05-29T18:59:37.161Z,7.70
2017-05-29T19:02:05.477Z,6.30
2017-05-29T19:04:33.793Z,6.86
2017-05-29T19:07:02.409Z,7.54
2017-05-29T19:09:30.723Z,7.18
2017-05-29T19:11:59.866Z,8.20
2017-05-29T19:14:28.523Z,8.06
2017-05-29T19:16:56.059Z,10.60
2017-05-29T19:19:24.392Z,11.28
2017-05-29T19:21:53.075Z,7.32
2017-05-29T19:24:21.400Z,7.80
2017-05-29T19:26:49.730Z,7.66
2017-05-29T19:29:18.268Z,7.60
2017-05-29T19:31:46.563Z,8.60
2017-05-29T19:34:14.890Z,7.44
2017-05-29T19:36:43.510Z,8.24
2017-05-29T19:39:11.819Z,8.12
2017-05-29T19:41:40.119Z,7.34
2017-05-29T19:44:08.647Z,7.80
2017-05-29T19:46:38.166Z,7.40
2017-05-29T19:49:06.510Z,7.34
2017-05-29T19:51:36.904Z,8.94
2017-05-29T19:54:05.254Z,8.72
2017-05-29T19:56:33.571Z,10.16
2017-05-29T19:59:02.586Z,8.60
2017-05-29T20:01:30.892Z,8.30
2017-05-29T20:03:59.226Z,9.14
2017-05-29T20:06:27.757Z,8.46
2017-05-29T20:08:56.072Z,10.74
2017-05-29T20:11:24.386Z,12.18
2017-05-29T20:13:52.236Z,9.54
2017-05-29T20:16:20.563Z,8.60
2017-05-29T20:18:48.870Z,8.20
2017-05-29T20:21:17.490Z,9.62
2017-05-29T20:23:45.827Z,10.78
2017-05-29T20:26:14.142Z,9.32
2017-05-29T20:28:42.673Z,9.02
2017-05-29T20:31:10.830Z,9.10
2017-05-29T20:33:39.205Z,17.10
2017-05-29T20:36:07.762Z,9.10
2017-05-29T20:38:36.131Z,9.12
2017-05-29T20:41:03.688Z,10.08
2017-05-29T20:43:32.611Z,8.32
2017-05-29T20:46:01.144Z,11.02
2017-05-29T20:48:29.474Z,10.92
2017-05-29T20:50:58.097Z,11.04
2017-05-29T20:53:26.442Z,11.02
2017-05-29T20:55:53.992Z,10.08
2017-05-29T20:58:22.598Z,9.72
2017-05-29T21:00:51.538Z,9.70
2017-05-29T21:03:20.809Z,10.32
2017-05-29T21:05:49.437Z,10.28
2017-05-29T21:08:17.752Z,11.16
2017-05-29T21:10:46.065Z,10.16
2017-05-29T21:13:13.898Z,10.18
2017-05-29T21:15:42.216Z,9.92
2017-05-29T21:18:10.518Z,9.88
2017-05-29T21:20:39.186Z,9.36
2017-05-29T21:23:06.763Z,10.76
2017-05-29T21:25:35.074Z,12.32
2017-05-29T21:28:04.592Z,11.66
2017-05-29T21:30:33.022Z,12.72
2017-05-29T21:33:01.352Z,10.48
2017-05-29T21:35:30.011Z,12.00
2017-05-29T21:37:58.331Z,11.78
2017-05-29T21:40:25.895Z,9.66
2017-05-29T21:42:54.643Z,10.10
2017-05-29T21:45:22.941Z,9.56
2017-05-29T21:47:50.484Z,9.48
2017-05-29T21:50:19.111Z,10.08
2017-05-29T21:52:48.447Z,10.24
2017-05-29T21:55:16.760Z,9.64
2017-05-29T21:57:44.542Z,8.64
2017-05-29T22:00:13.814Z,9.86
2017-05-29T22:02:42.128Z,10.06
2017-05-29T22:05:09.890Z,10.92
2017-05-29T22:07:38.226Z,8.36
2017-05-29T22:10:06.513Z,8.56
2017-05-29T22:12:35.066Z,8.50
2017-05-29T22:15:03.446Z,9.08
2017-05-29T22:17:31.743Z,8.00
2017-05-29T22:20:01.639Z,9.08
2017-05-29T22:22:30.202Z,8.72
2017-05-29T22:24:59.945Z,10.12
2017-05-29T22:27:32.839Z,9.04
2017-05-29T22:30:01.172Z,9.52
2017-05-29T22:32:29.465Z,8.98
2017-05-29T22:34:58.007Z,8.48
2017-05-29T22:37:26.326Z,12.54
2017-05-29T22:39:54.866Z,8.30
2017-05-29T22:42:23.603Z,9.32
2017-05-29T22:44:51.927Z,9.14
2017-05-29T22:47:20.249Z,9.72
2017-05-29T22:49:48.915Z,10.50
2017-05-29T22:52:17.241Z,12.68
2017-05-29T22:54:45.551Z,9.76
2017-05-29T22:57:13.373Z,11.10
2017-05-29T22:59:41.694Z,12.66
2017-05-29T23:02:10.013Z,11.30
2017-05-29T23:04:38.552Z,11.96
2017-05-29T23:07:06.864Z,11.88
2017-05-29T23:09:35.188Z,10.92
2017-05-29T23:12:03.728Z,11.54
2017-05-29T23:14:32.032Z,11.30
2017-05-29T23:17:00.333Z,10.90
2017-05-29T23:19:28.860Z,12.42
2017-05-29T23:21:57.171Z,12.04
2017-05-29T23:24:25.474Z,10.34
2017-05-29T23:26:54.110Z,10.14
2017-05-29T23:29:22.418Z,10.70
2017-05-29T23:31:50.716Z,12.18
2017-05-29T23:34:19.229Z,11.12
2017-05-29T23:36:47.530Z,11.14
2017-05-29T23:39:15.834Z,10.16
2017-05-29T23:41:44.359Z,12.70
2017-05-29T23:44:12.646Z,10.34
2017-05-29T23:46:40.179Z,10.80
2017-05-29T23:49:08.705Z,13.14
2017-05-29T23:51:37.007Z,10.08
2017-05-29T23:54:05.311Z,9.48
2017-05-29T23:56:33.815Z,10.40
2017-05-29T23:59:02.136Z,10.04
